Terminal Aerodrome Forecast
Issued by NWS Huntsville, AL

Home | Current Version | Previous Version | Text Only | Print | Product List | Glossary On
Versions: 1 2 3 4 5 6 7 8 9 10 11 12 13 14 15 16 17
000
FTUS44 KHUN 282346 AAA
TAFMSL
TAF AMD
KMSL 282346Z 2900/2924 24005KT P6SM VCSH BKN015 OVC025
     FM290500 24005KT 5SM BR VCSH BKN008 OVC015
     FM291300 25005KT P6SM BKN015
     FM291700 26006KT P6SM VCTS SCT020 BKN050CB=

USA.gov is the U.S. government's official web portal to all federal, state and local government web resources and services.